createdAt,value
2023-05-20T12:11:21.040Z,1020.16
2023-05-20T12:14:45.459Z,1020.15
2023-05-20T12:15:58.253Z,1020.09
2023-05-20T12:19:16.652Z,1020.04
2023-05-20T12:20:22.623Z,1020.05
2023-05-20T12:21:28.697Z,1020.03
2023-05-20T12:22:34.777Z,1019.94
2023-05-20T12:26:59.165Z,1019.85
2023-05-20T12:28:05.240Z,1019.76
2023-05-20T12:29:11.346Z,1019.87
2023-05-20T12:30:30.176Z,1019.88
2023-05-20T12:31:42.836Z,1019.88
2023-05-20T12:33:02.108Z,1019.89
2023-05-20T12:34:21.339Z,1019.81
2023-05-20T12:35:40.601Z,1019.85
2023-05-20T12:36:59.869Z,1019.8
2023-05-20T12:38:19.125Z,1019.77
2023-05-20T12:39:38.357Z,1019.78
2023-05-20T12:40:57.103Z,1019.7
2023-05-20T12:42:09.871Z,1019.65
2023-05-20T12:43:22.535Z,1019.65
2023-05-20T12:44:35.219Z,1019.66
2023-05-20T12:47:00.711Z,1019.59
2023-05-20T12:49:26.303Z,1019.65
2023-05-20T12:53:10.559Z,1019.6
2023-05-20T12:54:23.216Z,1019.63
2023-05-20T12:55:35.844Z,1019.68
2023-05-20T12:57:54.620Z,1019.69
2023-05-20T13:00:19.969Z,1019.62
2023-05-20T13:01:32.717Z,1019.59
2023-05-20T13:03:58.006Z,1019.48
2023-05-20T13:06:23.426Z,1019.45
2023-05-20T13:07:42.538Z,1019.46
2023-05-20T13:10:07.985Z,1019.46
2023-05-20T13:11:14.090Z,1019.31
2023-05-20T13:12:26.736Z,1019.28
2023-05-20T13:13:39.340Z,1019.26
2023-05-20T13:14:52.107Z,1019.24
2023-05-20T13:16:04.696Z,1019.22
2023-05-20T13:17:17.457Z,1019.23
2023-05-20T13:18:30.037Z,1019.19
2023-05-20T13:19:42.804Z,1019.13
2023-05-20T13:20:55.403Z,1019.2
2023-05-20T13:22:08.140Z,1019.13
2023-05-20T13:23:27.437Z,1019.13
2023-05-20T13:24:40.093Z,1019.14
2023-05-20T13:25:52.304Z,1019.12
2023-05-20T13:27:04.956Z,1019.07
2023-05-20T13:28:17.665Z,1019.05
2023-05-20T13:29:30.353Z,1019.03
2023-05-20T13:30:43.073Z,1019.04
2023-05-20T13:32:02.327Z,1019.04
